sensor_id;sensor_type;location;lat;lon;timestamp;pressure;altitude;pressure_sealevel;temperature;humidity
58991;BME280;44781;53.444;14.476;2023-02-23T00:24:39;101597.49;;;2.75;66.85
58991;BME280;44781;53.444;14.476;2023-02-23T00:27:35;101595.88;;;2.70;66.91
58991;BME280;44781;53.444;14.476;2023-02-23T00:30:21;101596.29;;;2.68;66.89
58991;BME280;44781;53.444;14.476;2023-02-23T00:32:49;101595.26;;;2.68;67.03
58991;BME280;44781;53.444;14.476;2023-02-23T01:43:17;101534.67;;;2.86;67.69
58991;BME280;44781;53.444;14.476;2023-02-23T06:44:27;101368.48;;;2.19;71.13
58991;BME280;44781;53.444;14.476;2023-02-23T06:54:35;101365.96;;;2.32;71.06
58991;BME280;44781;53.444;14.476;2023-02-23T07:25:21;101358.19;;;2.62;71.29
58991;BME280;44781;53.444;14.476;2023-02-23T07:32:23;101350.66;;;2.62;70.77
58991;BME280;44781;53.444;14.476;2023-02-23T08:15:09;101326.83;;;3.49;69.11
58991;BME280;44781;53.444;14.476;2023-02-23T08:17:58;101326.59;;;3.46;69.17
58991;BME280;44781;53.444;14.476;2023-02-23T08:48:43;101295.75;;;3.54;69.03
58991;BME280;44781;53.444;14.476;2023-02-23T08:52:29;101309.17;;;3.64;69.00
58991;BME280;44781;53.444;14.476;2023-02-23T09:00:02;101299.92;;;3.63;68.97
58991;BME280;44781;53.444;14.476;2023-02-23T09:11:19;101296.46;;;3.67;69.05
58991;BME280;44781;53.444;14.476;2023-02-23T09:18:14;101287.98;;;3.78;69.25
58991;BME280;44781;53.444;14.476;2023-02-23T09:21:16;101286.72;;;3.88;69.24
58991;BME280;44781;53.444;14.476;2023-02-23T10:22:07;101264.70;;;5.65;68.64
58991;BME280;44781;53.444;14.476;2023-02-23T10:25:04;101262.60;;;5.72;68.37
58991;BME280;44781;53.444;14.476;2023-02-23T10:27:40;101264.86;;;5.80;68.37
58991;BME280;44781;53.444;14.476;2023-02-23T10:33:33;101258.61;;;5.93;68.16
58991;BME280;44781;53.444;14.476;2023-02-23T10:36:15;101262.32;;;6.01;68.04
58991;BME280;44781;53.444;14.476;2023-02-23T10:38:48;101261.05;;;6.08;67.87
58991;BME280;44781;53.444;14.476;2023-02-23T10:41:28;101261.58;;;6.16;67.73
58991;BME280;44781;53.444;14.476;2023-02-23T10:43:55;101248.38;;;6.16;67.72
58991;BME280;44781;53.444;14.476;2023-02-23T10:46:33;101257.01;;;6.30;67.68
58991;BME280;44781;53.444;14.476;2023-02-23T10:49:16;101256.49;;;6.37;67.48
58991;BME280;44781;53.444;14.476;2023-02-23T10:51:56;101252.99;;;6.43;67.36
58991;BME280;44781;53.444;14.476;2023-02-23T10:54:37;101253.34;;;6.51;67.43
58991;BME280;44781;53.444;14.476;2023-02-23T10:57:11;101253.79;;;6.59;67.29
58991;BME280;44781;53.444;14.476;2023-02-23T11:00:25;101243.55;;;6.70;67.23
58991;BME280;44781;53.444;14.476;2023-02-23T11:03:43;101238.66;;;6.83;67.04
58991;BME280;44781;53.444;14.476;2023-02-23T11:06:37;101232.48;;;6.97;67.00
58991;BME280;44781;53.444;14.476;2023-02-23T11:09:24;101228.72;;;7.12;66.93
58991;BME280;44781;53.444;14.476;2023-02-23T11:12:02;101223.35;;;7.23;66.54
58991;BME280;44781;53.444;14.476;2023-02-23T11:14:33;101220.88;;;7.33;66.21
58991;BME280;44781;53.444;14.476;2023-02-23T11:17:00;101213.23;;;7.41;66.14
58991;BME280;44781;53.444;14.476;2023-02-23T11:19:32;101204.83;;;7.50;66.06
58991;BME280;44781;53.444;14.476;2023-02-23T11:22:06;101200.63;;;7.56;65.94
58991;BME280;44781;53.444;14.476;2023-02-23T11:24:39;101199.25;;;7.62;65.68
58991;BME280;44781;53.444;14.476;2023-02-23T11:27:22;101198.95;;;7.67;65.39
58991;BME280;44781;53.444;14.476;2023-02-23T11:30:02;101194.88;;;7.70;65.11
58991;BME280;44781;53.444;14.476;2023-02-23T11:32:32;101191.69;;;7.74;65.02
58991;BME280;44781;53.444;14.476;2023-02-23T11:37:48;101188.29;;;7.81;64.85
58991;BME280;44781;53.444;14.476;2023-02-23T11:40:30;101183.27;;;7.85;64.78
58991;BME280;44781;53.444;14.476;2023-02-23T11:43:08;101177.64;;;7.92;64.80
58991;BME280;44781;53.444;14.476;2023-02-23T11:45:55;101175.77;;;7.97;64.85
58991;BME280;44781;53.444;14.476;2023-02-23T11:48:34;101167.85;;;8.03;64.60
58991;BME280;44781;53.444;14.476;2023-02-23T11:51:09;101166.80;;;8.09;64.39
58991;BME280;44781;53.444;14.476;2023-02-23T11:56:41;101168.48;;;8.19;64.15
58991;BME280;44781;53.444;14.476;2023-02-23T11:59:55;101158.50;;;8.24;63.95
58991;BME280;44781;53.444;14.476;2023-02-23T12:34:04;101137.91;;;8.39;62.98
58991;BME280;44781;53.444;14.476;2023-02-23T12:40:43;101136.96;;;8.34;63.18
58991;BME280;44781;53.444;14.476;2023-02-23T12:43:49;101131.91;;;8.33;63.26
58991;BME280;44781;53.444;14.476;2023-02-23T12:46:33;101124.24;;;8.32;63.14
58991;BME280;44781;53.444;14.476;2023-02-23T12:50:04;101125.75;;;8.33;63.20
58991;BME280;44781;53.444;14.476;2023-02-23T13:05:31;101119.10;;;8.21;63.50
58991;BME280;44781;53.444;14.476;2023-02-23T13:08:28;101116.39;;;8.19;63.48
58991;BME280;44781;53.444;14.476;2023-02-23T13:28:16;101104.23;;;8.34;63.69
58991;BME280;44781;53.444;14.476;2023-02-23T13:31:25;101099.92;;;8.32;63.67
58991;BME280;44781;53.444;14.476;2023-02-23T13:33:57;101098.98;;;8.33;63.66
58991;BME280;44781;53.444;14.476;2023-02-23T13:36:35;101106.41;;;8.38;63.63
58991;BME280;44781;53.444;14.476;2023-02-23T13:50:41;101089.64;;;8.34;63.96
58991;BME280;44781;53.444;14.476;2023-02-23T13:54:29;101084.47;;;8.31;64.03
58991;BME280;44781;53.444;14.476;2023-02-23T14:01:39;101059.10;;;8.20;64.26
58991;BME280;44781;53.444;14.476;2023-02-23T15:48:49;101054.14;;;8.09;66.87
58991;BME280;44781;53.444;14.476;2023-02-23T17:34:28;101009.72;;;7.94;69.72
58991;BME280;44781;53.444;14.476;2023-02-23T18:42:26;100981.94;;;7.76;74.17
58991;BME280;44781;53.444;14.476;2023-02-23T18:45:21;100982.40;;;7.77;74.36
58991;BME280;44781;53.444;14.476;2023-02-23T18:48:40;100984.46;;;7.78;74.60
58991;BME280;44781;53.444;14.476;2023-02-23T18:51:55;100980.31;;;7.77;74.61
58991;BME280;44781;53.444;14.476;2023-02-23T18:58:50;100972.04;;;7.74;74.98
58991;BME280;44781;53.444;14.476;2023-02-23T19:01:27;100973.88;;;7.75;75.22
58991;BME280;44781;53.444;14.476;2023-02-23T19:04:28;100969.46;;;7.79;75.53
58991;BME280;44781;53.444;14.476;2023-02-23T19:15:31;100967.48;;;7.82;76.43
58991;BME280;44781;53.444;14.476;2023-02-23T19:23:00;100965.30;;;7.89;76.73
58991;BME280;44781;53.444;14.476;2023-02-23T19:33:41;100954.86;;;7.93;77.70
58991;BME280;44781;53.444;14.476;2023-02-23T19:37:15;100952.32;;;7.94;77.90
58991;BME280;44781;53.444;14.476;2023-02-23T19:40:42;100951.48;;;7.96;78.13
58991;BME280;44781;53.444;14.476;2023-02-23T19:51:42;100955.06;;;7.96;78.74
58991;BME280;44781;53.444;14.476;2023-02-23T19:58:19;100948.94;;;7.81;79.37
58991;BME280;44781;53.444;14.476;2023-02-23T20:01:32;100952.95;;;7.78;79.74
58991;BME280;44781;53.444;14.476;2023-02-23T20:04:58;100947.66;;;7.76;80.16
58991;BME280;44781;53.444;14.476;2023-02-23T20:08:20;100945.52;;;7.73;80.46
58991;BME280;44781;53.444;14.476;2023-02-23T20:11:06;100944.40;;;7.71;80.69
58991;BME280;44781;53.444;14.476;2023-02-23T20:14:11;100942.84;;;7.68;80.71
58991;BME280;44781;53.444;14.476;2023-02-23T20:17:22;100938.14;;;7.64;80.86
58991;BME280;44781;53.444;14.476;2023-02-23T20:19:53;100937.70;;;7.66;80.95
58991;BME280;44781;53.444;14.476;2023-02-23T20:22:25;100937.45;;;7.70;81.25
58991;BME280;44781;53.444;14.476;2023-02-23T20:25:34;100923.36;;;7.68;81.28
58991;BME280;44781;53.444;14.476;2023-02-23T20:29:11;100931.52;;;7.75;81.33
58991;BME280;44781;53.444;14.476;2023-02-23T20:32:16;100928.54;;;7.72;81.22
58991;BME280;44781;53.444;14.476;2023-02-23T20:34:50;100929.30;;;7.68;81.25
58991;BME280;44781;53.444;14.476;2023-02-23T20:37:39;100929.29;;;7.68;81.29
58991;BME280;44781;53.444;14.476;2023-02-23T20:40:19;100927.05;;;7.70;81.33
58991;BME280;44781;53.444;14.476;2023-02-23T20:43:31;100927.80;;;7.73;81.52
58991;BME280;44781;53.444;14.476;2023-02-23T20:46:29;100931.23;;;7.74;81.42
58991;BME280;44781;53.444;14.476;2023-02-23T20:49:18;100930.54;;;7.74;81.40
58991;BME280;44781;53.444;14.476;2023-02-23T20:56:24;100927.37;;;7.68;81.37
58991;BME280;44781;53.444;14.476;2023-02-23T21:00:01;100924.39;;;7.68;81.47
58991;BME280;44781;53.444;14.476;2023-02-23T21:04:15;100917.34;;;7.74;81.56
58991;BME280;44781;53.444;14.476;2023-02-23T21:07:12;100916.63;;;7.77;81.56
58991;BME280;44781;53.444;14.476;2023-02-23T21:10:17;100913.55;;;7.78;81.35
58991;BME280;44781;53.444;14.476;2023-02-23T21:12:57;100906.77;;;7.77;81.29
58991;BME280;44781;53.444;14.476;2023-02-23T21:15:52;100903.02;;;7.75;81.21
58991;BME280;44781;53.444;14.476;2023-02-23T21:19:15;100900.65;;;7.76;81.29
58991;BME280;44781;53.444;14.476;2023-02-23T21:21:56;100899.29;;;7.78;81.17
58991;BME280;44781;53.444;14.476;2023-02-23T21:24:28;100899.52;;;7.80;81.09
58991;BME280;44781;53.444;14.476;2023-02-23T21:27:00;100898.09;;;7.81;81.09
58991;BME280;44781;53.444;14.476;2023-02-23T21:30:03;100892.44;;;7.81;80.86
58991;BME280;44781;53.444;14.476;2023-02-23T21:32:51;100891.79;;;7.80;80.81
58991;BME280;44781;53.444;14.476;2023-02-23T21:35:51;100892.00;;;7.77;80.77
58991;BME280;44781;53.444;14.476;2023-02-23T21:39:03;100892.38;;;7.74;80.64
58991;BME280;44781;53.444;14.476;2023-02-23T21:42:25;100887.38;;;7.72;80.74
58991;BME280;44781;53.444;14.476;2023-02-23T21:45:11;100890.17;;;7.73;80.43
58991;BME280;44781;53.444;14.476;2023-02-23T21:48:37;100886.92;;;7.74;80.56
58991;BME280;44781;53.444;14.476;2023-02-23T21:52:28;100883.59;;;7.74;80.54
58991;BME280;44781;53.444;14.476;2023-02-23T22:08:16;100877.73;;;7.63;80.53
58991;BME280;44781;53.444;14.476;2023-02-23T22:15:15;100874.23;;;7.69;80.55
58991;BME280;44781;53.444;14.476;2023-02-23T22:18:25;100868.64;;;7.68;80.67
58991;BME280;44781;53.444;14.476;2023-02-23T22:21:53;100862.66;;;7.68;80.78
58991;BME280;44781;53.444;14.476;2023-02-23T22:25:29;100863.51;;;7.68;80.66
58991;BME280;44781;53.444;14.476;2023-02-23T22:28:54;100862.05;;;7.67;80.58
58991;BME280;44781;53.444;14.476;2023-02-23T22:32:12;100856.91;;;7.67;80.72
58991;BME280;44781;53.444;14.476;2023-02-23T22:35:38;100853.36;;;7.70;80.92
58991;BME280;44781;53.444;14.476;2023-02-23T22:42:50;100846.52;;;7.67;80.89
58991;BME280;44781;53.444;14.476;2023-02-23T22:46:04;100845.36;;;7.66;80.79
58991;BME280;44781;53.444;14.476;2023-02-23T22:48:54;100840.70;;;7.65;80.87
58991;BME280;44781;53.444;14.476;2023-02-23T22:52:17;100836.47;;;7.65;81.02
58991;BME280;44781;53.444;14.476;2023-02-23T22:55:05;100831.87;;;7.68;81.04
58991;BME280;44781;53.444;14.476;2023-02-23T23:02:15;100824.94;;;7.75;81.31
58991;BME280;44781;53.444;14.476;2023-02-23T23:16:16;100817.23;;;7.61;81.44
58991;BME280;44781;53.444;14.476;2023-02-23T23:19:11;100815.72;;;7.62;81.71
58991;BME280;44781;53.444;14.476;2023-02-23T23:22:16;100816.67;;;7.64;81.97
58991;BME280;44781;53.444;14.476;2023-02-23T23:25:17;100813.56;;;7.63;82.02
58991;BME280;44781;53.444;14.476;2023-02-23T23:28:23;100806.03;;;7.60;82.07
58991;BME280;44781;53.444;14.476;2023-02-23T23:31:00;100803.77;;;7.59;82.17
58991;BME280;44781;53.444;14.476;2023-02-23T23:33:49;100801.94;;;7.60;82.28
58991;BME280;44781;53.444;14.476;2023-02-23T23:37:02;100803.13;;;7.61;82.42
58991;BME280;44781;53.444;14.476;2023-02-23T23:39:51;100806.71;;;7.60;82.49
58991;BME280;44781;53.444;14.476;2023-02-23T23:42:45;100807.50;;;7.59;82.63
58991;BME280;44781;53.444;14.476;2023-02-23T23:45:39;100804.20;;;7.56;82.62
58991;BME280;44781;53.444;14.476;2023-02-23T23:52:42;100803.40;;;7.40;81.61
58991;BME280;44781;53.444;14.476;2023-02-23T23:55:37;100806.90;;;7.31;81.06
